Service Notice

This observation station is currently unavailable due to a loss of power in the area.

Work to restore the service will be undertaken as soon as it is safe to do so.

The Bureau's national resources allow our meteorologists to produce accurate and timely forecasts and warnings in areas without observations, including for the locations around this station site. Search for forcast by town, city, post code or lat/lon here or find the location on the MetEye map.

Latest Coastal Weather Observations for Mallacoota

IDV60701

Issued at 1:12 am EST Thursday 3 September 2026 (issued every 10 minutes, with the page automatically refreshed every 10 minutes)

About coastal observations | Map of coastal stations | Coastal observations for VIC | Marine services | Other Formats
Station Details ID: 084084 Name: MALLACOOTA Lat: -37.60 Lon: 149.73 Height: 22.0 m
Data from the previous 72 hours. | See also: Recent months at Mallacoota
Date/Time
EST
Wind Sea
Height
m
Swell Vis
km
Cloud Weather Temp
°C
Press
MSL
hPa
Rain since
9am
mm
Dir  Spd
kts
Gust
kts
Height
m
Period
s
Dir
03/01:00am ENE 3 4 - - - - - - - 11.5 1008.8 0.0
03/12:30am ENE 3 4 - - - - - - - 11.4 1009.1 0.0
03/12:00am N 4 5 - - - - - - - 11.9 1009.1 0.0
 
Date/Time
EST
Wind Sea
Height
m
Swell Vis
km
Cloud Weather Temp
°C
Press
MSL
hPa
Rain since
9am
mm
Dir  Spd
kts
Gust
kts
Height
m
Period
s
Dir
02/11:30pm N 4 5 - - - - - - - 12.2 1009.7 0.0
02/11:00pm NNW 4 5 - - - - - - - 12.7 1010.4 0.0
02/10:30pm N 5 6 - - - - - - - 13.5 1011.0 0.0
02/10:00pm NNE 4 5 - - - - - - - 13.4 1011.2 0.0
02/09:30pm NE 4 5 - - - - - - - 13.7 1011.5 0.0
02/09:00pm NE 3 4 - - - - - - - 13.7 1011.5 0.0
02/08:30pm NE 3 5 - - - - - - - 14.1 1011.8 0.0
02/08:00pm ESE 3 5 - - - - - - - 14.3 1012.0 0.0
02/07:30pm ESE 2 4 - - - - - - - 14.3 1012.1 0.0
02/07:00pm CALM 0 0 - - - - - - - 14.2 1012.1 0.0
02/06:30pm SSW 3 3 - - - - - - - 14.1 1012.0 0.0
02/06:00pm SSW 3 5 - - - - - - - 14.2 1012.0 0.0
02/05:30pm SSW 6 8 - - - - - - - 14.3 1011.6 0.0
02/05:00pm S 7 9 - - - - - - - 14.5 1011.5 0.0
02/04:30pm S 8 11 - - - - - - - 14.8 1011.3 0.0
02/04:00pm S 8 11 - - - - - - - 14.9 1011.4 0.0
02/03:30pm S 9 13 - - - - - - - 15.2 1011.4 0.0
02/03:00pm S 11 14 - - - - - - - 15.3 1011.7 0.0
02/02:30pm SSW 12 16 - - - - - - - 15.0 1011.6 0.0
02/02:00pm S 12 16 - - - - - - - 15.8 1011.5 0.0
02/01:30pm SSW 11 17 - - - - - - - 16.8 1011.5 0.0
02/01:00pm SSW 12 18 - - - - - - - 18.0 1011.7 0.0
02/12:30pm SSW 12 19 - - - - - - - 17.4 1012.2 0.0
02/12:00pm SSW 12 19 - - - - - - - 17.3 1012.5 0.0
02/11:30am SSW 12 17 - - - - - - - 17.3 1013.1 0.0
02/11:00am SSW 11 17 - - - - - - - 17.0 1013.3 0.0
02/10:30am SSW 9 14 - - - - - - - 17.8 1013.4 0.0
02/10:00am S 9 14 - - - - - - - 18.3 1013.4 0.0
02/09:30am S 6 8 - - - - - - - 18.1 1013.5 0.0
02/09:00am S 6 7 - - - - - - - 17.4 1013.4 0.0
02/08:30am S 6 9 - - - - - - - 17.2 1013.3 0.0
02/08:00am S 5 8 - - - - - - - 16.9 1013.0 0.0
02/07:30am SW 5 9 - - - - - - - 15.8 1012.8 0.0
02/07:00am NW 6 8 - - - - - - - 14.8 1012.0 0.0
02/06:30am NW 7 9 - - - - - - - 13.7 1011.8 0.0
02/06:00am NW 7 8 - - - - - - - 13.3 1011.7 0.0
02/05:30am NW 7 8 - - - - - - - 12.9 1011.5 0.0
02/05:00am NW 7 8 - - - - - - - 13.2 1011.2 0.0
02/04:30am NW 7 8 - - - - - - - 13.3 1011.4 0.0
02/04:00am NW 6 8 - - - - - - - 13.6 1011.3 0.0
02/03:30am NW 6 9 - - - - - - - 14.5 1011.2 0.0
02/03:00am NNW 6 8 - - - - - - - 14.0 1011.3 0.0
02/02:30am NW 5 7 - - - - - - - 14.4 1011.5 0.0
02/02:00am NNW 6 7 - - - - - - - 14.3 1011.8 0.0
02/01:30am NNW 5 6 - - - - - - - 13.8 1011.9 0.0
02/01:00am NNW 6 7 - - - - - - - 15.3 1011.7 0.0
02/12:30am NNW 5 6 - - - - - - - 15.5 1012.1 0.0
02/12:00am NNW 4 5 - - - - - - - 13.6 1012.3 0.0
 
Date/Time
EST
Wind Sea
Height
m
Swell Vis
km
Cloud Weather Temp
°C
Press
MSL
hPa
Rain since
9am
mm
Dir  Spd
kts
Gust
kts
Height
m
Period
s
Dir
01/11:30pm NW 4 5 - - - - - - - 13.0 1013.0 0.0
01/11:00pm NW 4 5 - - - - - - - 13.3 1013.1 0.0
01/10:30pm WNW 3 5 - - - - - - - 12.7 1013.1 0.0
01/10:00pm NNW 2 4 - - - - - - - 12.3 1013.5 0.0
01/09:30pm N 4 5 - - - - - - - 12.6 1013.4 0.0
01/09:00pm WNW 4 6 - - - - - - - 16.1 1013.6 0.0
01/08:30pm NW 3 6 - - - - - - - 16.5 1013.5 0.0
01/08:00pm NNW 5 7 - - - - - - - 17.4 1013.4 0.0
01/07:30pm N 4 5 - - - - - - - 13.5 1013.6 0.0
01/07:00pm NNW 4 5 - - - - - - - 15.9 1013.6 0.0
01/06:30pm NNW 5 6 - - - - - - - 18.2 1013.3 0.0
01/06:00pm NNW 6 10 - - - - - - - 17.5 1012.9 0.0
01/05:30pm NW 4 6 - - - - - - - 16.5 1013.0 0.0
01/05:00pm W 5 7 - - - - - - - 17.0 1013.2 0.0
01/04:30pm SSE 1 3 - - - - - - - 17.5 1013.3 0.0
01/04:00pm SSW 7 9 - - - - - - - 17.1 1013.8 0.0
01/03:30pm SSW 7 9 - - - - - - - 17.7 1014.1 0.0
01/03:00pm SSW 6 9 - - - - - - - 17.5 1014.5 0.0
01/02:30pm SSE 5 8 - - - - - - - 17.4 1014.7 0.0
01/02:00pm E 5 7 - - - - - - - 17.6 1015.1 0.0
01/01:30pm E 5 6 - - - - - - - 17.6 1015.9 0.0
01/01:00pm E 5 6 - - - - - - - 17.3 1016.5 0.0
01/12:30pm SSE 5 7 - - - - - - - 16.6 1017.2 0.0
01/12:00pm S 7 9 - - - - - - - 16.4 1017.9 0.0
01/11:30am S 8 10 - - - - - - - 16.2 1018.6 0.0
01/11:00am S 10 12 - - - - - - - 16.2 1019.3 0.0
01/10:30am WSW 7 13 - - - - - - - 17.3 1019.7 0.0
01/10:00am N 4 6 - - - - - - - 19.6 1020.1 0.0
01/09:30am NW 3 5 - - - - - - - 17.7 1020.6 0.0
01/09:00am NNW 6 9 - - - - - - - 16.0 1020.8 0.2
01/08:30am NW 5 7 - - - - - - - 14.9 1021.0 0.2
01/08:00am NW 6 9 - - - - - - - 13.4 1021.2 0.2
01/07:30am NW 7 10 - - - - - - - 11.7 1021.3 0.2
01/07:00am NW 9 13 - - - - - - - 11.3 1021.3 0.2
01/06:30am NW 9 14 - - - - - - - 10.7 1021.6 0.2
01/06:00am NW 8 11 - - - - - - - 10.6 1021.6 0.2
01/05:30am NW 7 11 - - - - - - - 10.1 1021.6 0.2
01/05:00am NNW 7 9 - - - - - - - 9.8 1021.9 0.2
01/04:30am CALM 0 5 - - - - - - - 7.6 1022.3 0.2
01/04:00am CALM 0 0 - - - - - - - 8.4 1022.6 0.2
01/03:30am NNW 5 6 - - - - - - - 10.2 1022.9 0.2
01/03:00am NNW 6 8 - - - - - - - 10.6 1023.2 0.2
01/02:30am NNW 5 7 - - - - - - - 10.3 1023.8 0.2
01/02:00am NNW 5 7 - - - - - - - 9.3 1024.6 0.2
01/01:30am N 6 8 - - - - - - - 10.6 1025.2 0.2
01/01:00am N 4 7 - - - - - - - 9.1 1025.7 0.2
01/12:30am N 5 6 - - - - - - - 7.9 1026.2 0.2
01/12:00am N 5 6 - - - - - - - 7.8 1026.4 0.2
 
Date/Time
EST
Wind Sea
Height
m
Swell Vis
km
Cloud Weather Temp
°C
Press
MSL
hPa
Rain since
9am
mm
Dir  Spd
kts
Gust
kts
Height
m
Period
s
Dir
31/11:30pm SSW 5 5 - - - - - - - 7.0 1026.7 0.2
31/11:00pm SSW 4 5 - - - - - - - 7.4 1027.3 0.2
31/10:30pm SSW 4 5 - - - - - - - 7.7 1027.8 0.2
31/10:00pm SSW 4 5 - - - - - - - 7.8 1028.2 0.2
31/09:30pm SSW 4 5 - - - - - - - 8.3 1028.4 0.2
31/09:00pm SSW 4 4 - - - - - - - 9.1 1028.4 0.2
31/08:30pm SSW 3 4 - - - - - - - 9.8 1028.6 0.2
31/08:00pm CALM 0 0 - - - - - - - 10.3 1028.9 0.2
31/07:30pm SSW 3 3 - - - - - - - 9.2 1029.0 0.2
31/07:00pm SSW 2 3 - - - - - - - 9.9 1028.9 0.2
31/06:30pm SSW 3 5 - - - - - - - 10.7 1028.8 0.2
31/06:00pm S 5 6 - - - - - - - 11.5 1028.5 0.2
31/05:30pm SSW 3 5 - - - - - - - 12.4 1028.3 0.2
31/05:00pm SSW 7 9 - - - - - - - 13.7 1028.1 0.2
31/04:30pm SSW 7 10 - - - - - - - 14.5 1028.0 0.2
31/04:00pm SSW 8 10 - - - - - - - 15.1 1028.0 0.2
31/03:30pm S 11 16 - - - - - - - 14.7 1028.0 0.2
31/03:00pm S 10 15 - - - - - - - 14.9 1028.1 0.2
31/02:30pm S 11 15 - - - - - - - 15.1 1028.3 0.2
31/02:00pm S 12 17 - - - - - - - 15.0 1028.4 0.2
31/01:30pm S 12 17 - - - - - - - 14.8 1028.9 0.2
31/01:00pm S 11 15 - - - - - - - 15.2 1029.3 0.2
31/12:30pm S 11 16 - - - - - - - 15.1 1029.6 0.2
31/12:00pm S 12 16 - - - - - - Rain 14.5 1030.1 0.2
31/11:30am S 9 13 - - - - - - - 14.9 1030.4 0.0
31/11:00am S 10 15 - - - - - - - 14.5 1030.7 0.0
31/10:30am WNW 4 7 - - - - - - - 16.4 1031.0 0.0
31/10:00am W 4 7 - - - - - - - 15.7 1030.9 0.0
31/09:30am W 5 9 - - - - - - - 14.1 1031.2 0.0
31/09:00am W 7 12 - - - - - - - 12.8 1031.4 0.0
31/08:30am W 4 7 - - - - - - - 11.9 1031.5 0.0
31/08:00am NW 4 10 - - - - - - - 10.9 1031.3 0.0
31/07:30am WSW 4 5 - - - - - - - 9.5 1031.2 0.0
31/07:00am CALM 0 0 - - - - - - - 7.5 1030.8 0.0
31/06:30am W 3 4 - - - - - - - 7.0 1030.7 0.0
31/06:00am WSW 4 6 - - - - - - - 8.3 1030.3 0.0
31/05:30am W 4 5 - - - - - - - 7.3 1030.1 0.0
31/05:00am WNW 4 6 - - - - - - - 8.0 1030.0 0.0
31/04:30am W 4 6 - - - - - - - 8.8 1030.0 0.0
31/04:00am W 3 5 - - - - - - - 8.3 1029.7 0.0
31/03:30am NNW 3 4 - - - - - - - 7.8 1029.6 0.0
31/03:00am W 1 3 - - - - - - - 7.9 1029.8 0.0
31/02:30am WSW 4 6 - - - - - - - 8.6 1030.0 0.0
31/02:00am WNW 2 4 - - - - - - - 7.6 1030.2 0.0
31/01:30am W 2 4 - - - - - - - 7.2 1030.4 0.0

Other formats

Comma delimited format used in spreadsheet applications
http://www.bom.gov.au/fwo/IDV60701/IDV60701.94935.axf

JavaScript Object Notation format (JSON) in row-major order
http://www.bom.gov.au/fwo/IDV60701/IDV60701.94935.json

Data quality

Most of these data are generated automatically and are frequently updated. Quality checks on data are not normally performed. It is possible for incorrect values to appear. Refer to information at About Latest Weather Observations and please check the disclaimer before using these data.